createdAt,value
2019-04-29T00:02:17.481Z,5.85
2019-04-29T00:04:47.256Z,7.25
2019-04-29T00:07:16.597Z,6.12
2019-04-29T00:09:46.029Z,3.72
2019-04-29T00:12:16.203Z,6.67
2019-04-29T00:14:47.279Z,5.60
2019-04-29T00:17:23.781Z,6.53
2019-04-29T00:19:57.704Z,6.95
2019-04-29T00:22:27.099Z,7.55
2019-04-29T00:24:56.462Z,4.35
2019-04-29T00:27:26.126Z,5.78
2019-04-29T00:29:55.544Z,6.10
2019-04-29T00:32:24.881Z,7.00
2019-04-29T00:34:54.237Z,5.90
2019-04-29T00:37:40.631Z,4.50
2019-04-29T00:40:11.855Z,5.08
2019-04-29T00:42:45.597Z,5.83
2019-04-29T00:45:15.873Z,7.67
2019-04-29T00:47:45.273Z,9.08
2019-04-29T00:50:15.071Z,5.50
2019-04-29T00:52:44.475Z,5.58
2019-04-29T00:55:19.333Z,16.42
2019-04-29T00:57:48.666Z,7.15
2019-04-29T01:00:25.762Z,8.28
2019-04-29T01:02:55.099Z,7.50
2019-04-29T01:05:24.530Z,5.80
2019-04-29T01:07:54.001Z,6.33
2019-04-29T01:10:23.426Z,6.22
2019-04-29T01:12:52.756Z,7.72
2019-04-29T01:15:22.107Z,5.72
2019-04-29T01:17:51.519Z,6.78
2019-04-29T01:20:20.942Z,8.73
2019-04-29T01:22:50.274Z,7.85
2019-04-29T01:25:19.769Z,8.90
2019-04-29T01:27:53.457Z,8.68
2019-04-29T01:30:39.438Z,7.70
2019-04-29T01:33:08.767Z,6.35
2019-04-29T01:35:38.122Z,6.78
2019-04-29T01:38:07.526Z,5.42
2019-04-29T01:40:41.289Z,8.00
2019-04-29T01:43:10.617Z,6.58
2019-04-29T01:45:40.110Z,8.58
2019-04-29T01:48:09.510Z,8.23
2019-04-29T01:50:38.936Z,6.80
2019-04-29T01:53:08.336Z,6.87
2019-04-29T01:55:37.738Z,6.67
2019-04-29T01:58:07.100Z,11.50
2019-04-29T02:00:36.506Z,10.00
2019-04-29T02:03:06.008Z,11.33
2019-04-29T02:05:35.337Z,12.05
2019-04-29T02:08:04.839Z,12.25
2019-04-29T02:10:35.448Z,11.73
2019-04-29T02:13:04.946Z,11.05
2019-04-29T02:15:34.344Z,7.80
2019-04-29T02:18:03.707Z,12.23
2019-04-29T02:20:33.030Z,8.43
2019-04-29T02:23:04.044Z,11.83
2019-04-29T02:25:41.096Z,9.28
2019-04-29T02:28:10.466Z,8.20
2019-04-29T02:30:47.462Z,8.90
2019-04-29T02:33:17.030Z,11.75
2019-04-29T02:35:46.432Z,8.73
2019-04-29T02:38:29.439Z,8.50
2019-04-29T02:41:00.393Z,8.83
2019-04-29T02:43:34.287Z,10.32
2019-04-29T02:46:03.613Z,8.90
2019-04-29T02:48:34.601Z,10.48
2019-04-29T02:51:04.505Z,10.20
2019-04-29T02:53:33.935Z,13.32
2019-04-29T02:56:03.480Z,9.83
2019-04-29T02:58:43.674Z,11.93
2019-04-29T03:01:26.719Z,9.60
2019-04-29T03:04:03.661Z,8.25
2019-04-29T03:06:33.119Z,9.73
2019-04-29T03:09:02.623Z,9.13
2019-04-29T03:11:32.106Z,12.63
2019-04-29T03:14:01.603Z,10.85
2019-04-29T03:16:31.175Z,10.63
2019-04-29T03:19:02.248Z,8.55
2019-04-29T03:21:33.345Z,9.83
2019-04-29T03:24:02.715Z,11.40
2019-04-29T03:26:32.195Z,11.90
2019-04-29T03:29:01.619Z,10.43
2019-04-29T03:31:31.116Z,8.48
2019-04-29T03:34:00.509Z,13.08
2019-04-29T03:36:29.900Z,9.78
2019-04-29T03:38:59.258Z,15.50
2019-04-29T03:41:28.660Z,11.08
2019-04-29T03:43:58.042Z,12.47
2019-04-29T03:46:27.490Z,8.55
2019-04-29T03:48:56.862Z,8.53
2019-04-29T03:51:26.208Z,13.70
2019-04-29T03:53:55.566Z,8.98
2019-04-29T03:56:24.967Z,13.13
2019-04-29T03:58:54.331Z,14.30
2019-04-29T04:01:28.341Z,13.85
2019-04-29T04:03:59.320Z,12.82
2019-04-29T04:06:35.862Z,12.43
2019-04-29T04:09:14.209Z,11.33
2019-04-29T04:11:43.685Z,11.15
2019-04-29T04:14:13.043Z,15.63
2019-04-29T04:17:00.143Z,18.00
2019-04-29T04:19:31.139Z,12.58
2019-04-29T04:22:00.473Z,14.43
2019-04-29T04:24:29.836Z,19.70
2019-04-29T04:26:59.171Z,12.55
2019-04-29T04:29:28.878Z,13.83
2019-04-29T04:31:58.162Z,14.53
2019-04-29T04:34:27.596Z,10.72
2019-04-29T04:37:00.197Z,14.30
2019-04-29T04:39:29.655Z,10.88
2019-04-29T04:41:59.060Z,11.63
2019-04-29T04:44:46.365Z,17.70
2019-04-29T04:47:16.469Z,10.82
2019-04-29T04:49:46.172Z,13.95
2019-04-29T04:52:15.578Z,16.20
2019-04-29T04:54:46.654Z,12.45
2019-04-29T04:57:16.057Z,15.30
2019-04-29T04:59:45.489Z,13.18
2019-04-29T05:02:14.819Z,11.55
2019-04-29T05:04:44.246Z,10.60
2019-04-29T05:07:13.654Z,12.58
2019-04-29T05:09:43.081Z,9.05
2019-04-29T05:12:14.102Z,12.53
2019-04-29T05:14:43.806Z,12.47
2019-04-29T05:17:13.218Z,12.78
2019-04-29T05:19:42.639Z,9.40
2019-04-29T05:22:12.045Z,18.45
2019-04-29T05:24:41.396Z,14.60
2019-04-29T05:27:10.736Z,10.78
2019-04-29T05:29:40.092Z,9.00
2019-04-29T05:32:09.420Z,9.30
2019-04-29T05:34:41.879Z,13.62
2019-04-29T05:37:13.129Z,12.53
2019-04-29T05:39:44.265Z,15.05
2019-04-29T05:42:17.118Z,10.08
2019-04-29T05:44:52.722Z,14.65
2019-04-29T05:47:26.587Z,14.18
2019-04-29T05:50:16.877Z,14.28
2019-04-29T05:53:02.636Z,20.15
2019-04-29T05:55:32.068Z,12.37
2019-04-29T05:58:13.453Z,9.15
2019-04-29T06:00:45.200Z,14.00
2019-04-29T06:03:14.671Z,14.23
2019-04-29T06:05:44.182Z,12.50
2019-04-29T06:08:13.510Z,19.12
2019-04-29T06:10:42.879Z,9.70
2019-04-29T06:13:12.341Z,14.35
2019-04-29T06:15:41.708Z,11.48
2019-04-29T06:18:11.049Z,17.80
2019-04-29T06:20:40.469Z,16.87
2019-04-29T06:23:09.964Z,13.85
2019-04-29T06:25:39.333Z,12.37
2019-04-29T06:28:08.810Z,15.38
2019-04-29T06:30:40.582Z,12.05
2019-04-29T06:33:09.486Z,9.65
2019-04-29T06:35:38.960Z,11.45
2019-04-29T06:38:08.262Z,12.15
2019-04-29T06:40:37.624Z,15.60
2019-04-29T06:43:06.966Z,13.45
2019-04-29T06:45:36.322Z,11.85
2019-04-29T06:48:06.165Z,12.15
2019-04-29T06:50:35.591Z,16.82
2019-04-29T06:53:05.677Z,13.70
2019-04-29T06:55:35.174Z,13.68
2019-04-29T06:58:04.579Z,10.50
2019-04-29T07:00:34.012Z,11.95
2019-04-29T07:03:03.428Z,11.93
2019-04-29T07:05:32.865Z,17.73
2019-04-29T07:08:02.258Z,11.60
2019-04-29T07:10:31.638Z,14.28
2019-04-29T07:13:01.066Z,12.55
2019-04-29T07:15:30.577Z,12.05
2019-04-29T07:17:59.906Z,13.18
2019-04-29T07:20:32.555Z,13.05
2019-04-29T07:23:02.145Z,18.42
2019-04-29T07:25:31.840Z,15.75
2019-04-29T07:28:01.241Z,12.43
2019-04-29T07:30:30.660Z,10.18
2019-04-29T07:33:00.034Z,12.90
2019-04-29T07:35:29.482Z,14.90
2019-04-29T07:37:58.832Z,13.25
2019-04-29T07:40:28.251Z,14.58
2019-04-29T07:42:57.693Z,12.53
2019-04-29T07:45:29.227Z,16.65
2019-04-29T07:48:01.648Z,20.25
2019-04-29T07:50:29.904Z,9.40
2019-04-29T07:52:59.279Z,11.08
2019-04-29T07:55:30.868Z,13.40
2019-04-29T07:57:59.704Z,10.48
2019-04-29T08:00:36.352Z,16.62
2019-04-29T08:03:08.240Z,15.68
2019-04-29T08:05:37.823Z,14.45
2019-04-29T08:08:07.762Z,14.83
2019-04-29T08:10:37.167Z,13.15
2019-04-29T08:13:06.673Z,12.88
2019-04-29T08:15:36.859Z,17.02
2019-04-29T08:18:11.250Z,12.30
2019-04-29T08:20:39.763Z,10.45
2019-04-29T08:23:09.409Z,10.00
2019-04-29T08:25:38.822Z,18.23
2019-04-29T08:28:08.194Z,12.70
2019-04-29T08:30:37.537Z,12.03
2019-04-29T08:33:07.514Z,12.37
2019-04-29T08:35:38.241Z,8.25
2019-04-29T08:38:07.788Z,6.45
2019-04-29T08:40:37.269Z,7.37
2019-04-29T08:43:15.890Z,7.30
2019-04-29T08:45:49.850Z,7.42
2019-04-29T08:48:19.210Z,7.10
2019-04-29T08:50:48.555Z,8.73
2019-04-29T08:53:17.925Z,8.75
2019-04-29T08:55:47.260Z,4.33
2019-04-29T08:58:16.624Z,8.38
2019-04-29T09:00:45.961Z,5.85
2019-04-29T09:03:18.812Z,7.00
2019-04-29T09:06:04.261Z,8.58
2019-04-29T09:08:17.758Z,6.60
2019-04-29T09:10:47.116Z,7.40
2019-04-29T09:13:16.534Z,9.90
2019-04-29T09:15:45.941Z,7.17
2019-04-29T09:18:15.300Z,6.78
2019-04-29T09:20:44.975Z,9.10
2019-04-29T09:23:16.045Z,7.67
2019-04-29T09:26:02.609Z,8.65
2019-04-29T09:28:27.942Z,8.15
2019-04-29T09:30:55.271Z,8.28
2019-04-29T09:33:24.972Z,7.53
2019-04-29T09:35:54.309Z,6.97
2019-04-29T09:38:23.695Z,6.25
2019-04-29T09:40:59.435Z,5.55
2019-04-29T09:43:39.221Z,7.78
2019-04-29T09:46:10.342Z,5.33
2019-04-29T09:48:39.713Z,6.67
2019-04-29T09:51:17.226Z,9.85
2019-04-29T09:53:40.368Z,5.40
2019-04-29T09:56:09.770Z,6.62
2019-04-29T09:58:39.207Z,3.52
2019-04-29T10:01:19.143Z,3.77
2019-04-29T10:03:46.891Z,5.58
2019-04-29T10:06:23.705Z,7.97
2019-04-29T10:08:53.066Z,5.80
2019-04-29T10:11:22.564Z,5.25
2019-04-29T10:13:52.076Z,8.03
2019-04-29T10:16:26.051Z,4.58
2019-04-29T10:19:00.634Z,3.72
2019-04-29T10:21:28.263Z,6.67
2019-04-29T10:23:57.631Z,3.90
2019-04-29T10:26:27.277Z,6.00
2019-04-29T10:29:01.093Z,4.92
2019-04-29T10:31:30.428Z,3.25
2019-04-29T10:33:59.858Z,3.77
2019-04-29T10:36:29.271Z,7.60
2019-04-29T10:39:00.333Z,4.60
2019-04-29T10:41:31.458Z,5.42
2019-04-29T10:44:19.426Z,5.00
2019-04-29T10:47:05.798Z,4.37
2019-04-29T10:49:39.201Z,5.62
2019-04-29T10:52:08.084Z,4.97
2019-04-29T10:54:37.609Z,3.87
2019-04-29T10:57:10.534Z,3.87
2019-04-29T10:59:40.718Z,4.33
2019-04-29T11:02:30.766Z,2.60
2019-04-29T11:05:20.459Z,3.92
2019-04-29T11:07:51.680Z,4.42
2019-04-29T11:10:28.686Z,3.12
2019-04-29T11:12:58.260Z,3.33
2019-04-29T11:15:33.003Z,5.72
2019-04-29T11:18:03.677Z,4.03
2019-04-29T11:20:34.025Z,4.80
2019-04-29T11:23:14.806Z,2.05
2019-04-29T11:25:56.775Z,2.62
2019-04-29T11:28:26.384Z,9.60
2019-04-29T11:30:55.748Z,14.15
2019-04-29T11:33:29.697Z,2.42
2019-04-29T11:36:06.757Z,2.67
2019-04-29T11:38:38.319Z,4.37
2019-04-29T11:41:07.457Z,3.75
2019-04-29T11:43:37.085Z,20.35
2019-04-29T11:46:09.849Z,3.45
2019-04-29T11:48:38.148Z,3.27
2019-04-29T11:51:11.941Z,4.33
2019-04-29T11:53:41.290Z,6.37
2019-04-29T11:56:10.657Z,13.28
2019-04-29T11:58:57.911Z,29.75
2019-04-29T12:01:38.705Z,4.33
2019-04-29T12:04:08.099Z,10.85
2019-04-29T12:06:37.600Z,8.23
2019-04-29T12:09:09.227Z,10.88
2019-04-29T12:11:38.937Z,12.50
2019-04-29T12:14:21.868Z,22.13
2019-04-29T12:17:09.230Z,4.78
2019-04-29T12:19:48.978Z,8.58
2019-04-29T12:22:28.252Z,28.83
2019-04-29T12:24:49.488Z,7.55
2019-04-29T12:27:19.745Z,27.42
2019-04-29T12:29:54.273Z,22.05
2019-04-29T12:32:35.080Z,19.25
2019-04-29T12:35:16.827Z,33.28
2019-04-29T12:37:45.408Z,8.25
2019-04-29T12:40:19.456Z,10.48
2019-04-29T12:43:11.216Z,7.53
2019-04-29T12:45:43.026Z,11.65
2019-04-29T12:48:25.360Z,4.97
2019-04-29T12:50:57.382Z,4.90
2019-04-29T12:53:25.866Z,5.67
2019-04-29T12:55:57.106Z,4.65
2019-04-29T12:58:26.783Z,9.28
2019-04-29T13:01:01.260Z,6.47
2019-04-29T13:03:41.032Z,6.10
2019-04-29T13:06:15.235Z,4.72
2019-04-29T13:08:46.295Z,12.78
2019-04-29T13:11:19.245Z,10.45
2019-04-29T13:13:46.920Z,5.47
2019-04-29T13:16:22.078Z,6.47
2019-04-29T13:19:10.422Z,7.42
2019-04-29T13:21:27.073Z,6.75
2019-04-29T13:24:12.624Z,13.13
2019-04-29T13:26:28.854Z,12.47
2019-04-29T13:29:01.126Z,4.25
2019-04-29T13:31:38.194Z,10.05
2019-04-29T13:34:14.694Z,5.50
2019-04-29T13:36:34.193Z,3.30
2019-04-29T13:39:05.103Z,3.22
2019-04-29T13:41:34.544Z,3.25
2019-04-29T13:44:07.036Z,4.08
2019-04-29T13:46:55.678Z,4.08
2019-04-29T13:49:26.706Z,5.87
2019-04-29T13:51:57.702Z,3.77
2019-04-29T13:54:27.039Z,2.90
2019-04-29T13:57:07.675Z,3.17
2019-04-29T13:59:32.394Z,4.58
2019-04-29T14:02:22.124Z,3.95
2019-04-29T14:04:56.066Z,4.25
2019-04-29T14:07:23.629Z,3.27
2019-04-29T14:09:53.110Z,4.67
2019-04-29T14:12:47.962Z,6.95
2019-04-29T14:14:53.855Z,2.12
2019-04-29T14:17:26.799Z,8.58
2019-04-29T14:19:57.111Z,4.10
2019-04-29T14:22:26.512Z,8.10
2019-04-29T14:24:55.837Z,4.42
2019-04-29T14:27:25.643Z,3.75
2019-04-29T14:29:55.108Z,3.90
2019-04-29T14:32:34.706Z,3.08
2019-04-29T14:35:15.510Z,5.28
2019-04-29T14:37:54.759Z,5.97
2019-04-29T14:40:16.641Z,4.28
2019-04-29T14:42:57.387Z,2.20
2019-04-29T14:45:35.384Z,2.20
2019-04-29T14:48:24.559Z,1.67
2019-04-29T14:50:54.462Z,2.33
2019-04-29T14:53:26.283Z,2.33
2019-04-29T14:55:55.727Z,2.00
2019-04-29T14:58:25.086Z,2.65
2019-04-29T15:00:56.134Z,2.40
2019-04-29T15:03:29.838Z,2.15
2019-04-29T15:05:59.214Z,1.42
2019-04-29T15:08:32.014Z,2.47
2019-04-29T15:10:59.667Z,1.90
2019-04-29T15:13:29.097Z,1.47
2019-04-29T15:16:04.714Z,1.70
2019-04-29T15:18:47.289Z,2.17
2019-04-29T15:21:08.942Z,1.35
2019-04-29T15:23:38.506Z,2.87
2019-04-29T15:26:07.833Z,1.87
2019-04-29T15:28:52.522Z,2.25
2019-04-29T15:31:23.637Z,1.50
2019-04-29T15:33:53.397Z,3.50
2019-04-29T15:36:23.066Z,5.12
2019-04-29T15:39:09.013Z,4.20
2019-04-29T15:41:29.719Z,2.47
2019-04-29T15:44:06.524Z,2.10
2019-04-29T15:46:25.912Z,5.30
2019-04-29T15:48:55.279Z,4.10
2019-04-29T15:51:24.679Z,2.58
2019-04-29T15:53:54.458Z,4.58
2019-04-29T15:56:28.644Z,3.00
2019-04-29T15:58:59.459Z,2.52
2019-04-29T16:01:28.291Z,2.60
2019-04-29T16:03:58.865Z,2.70
2019-04-29T16:06:40.062Z,3.02
2019-04-29T16:09:15.620Z,3.95
2019-04-29T16:11:55.383Z,2.60
2019-04-29T16:14:25.390Z,19.05
2019-04-29T16:16:54.719Z,3.15
2019-04-29T16:19:24.085Z,3.65
2019-04-29T16:21:53.505Z,2.52
2019-04-29T16:24:27.379Z,4.78
2019-04-29T16:26:53.999Z,3.42
2019-04-29T16:29:23.337Z,4.65
2019-04-29T16:31:55.052Z,5.20
2019-04-29T16:34:24.483Z,4.75
2019-04-29T16:36:53.882Z,6.45
2019-04-29T16:39:23.310Z,4.47
2019-04-29T16:41:58.256Z,3.35
2019-04-29T16:46:59.646Z,4.33
2019-04-29T16:49:29.083Z,3.72
2019-04-29T16:51:58.488Z,3.80
2019-04-29T16:54:28.644Z,4.58
2019-04-29T16:56:58.145Z,12.43
2019-04-29T16:59:27.652Z,8.13
2019-04-29T17:01:57.085Z,24.60
2019-04-29T17:04:26.932Z,56.13
2019-04-29T17:07:11.755Z,42.58
2019-04-29T17:09:45.752Z,16.93
2019-04-29T17:12:15.283Z,15.00
2019-04-29T17:15:03.186Z,28.62
2019-04-29T17:17:28.901Z,22.98
2019-04-29T17:19:54.862Z,56.00
2019-04-29T17:22:26.933Z,9.38
2019-04-29T17:24:55.563Z,7.85
2019-04-29T17:27:29.313Z,9.50
2019-04-29T17:30:08.081Z,7.95
2019-04-29T17:32:49.440Z,8.03
2019-04-29T17:35:19.165Z,3.05
2019-04-29T17:35:21.839Z,8.10
2019-04-29T17:37:51.166Z,9.08
2019-04-29T17:40:21.855Z,10.95
2019-04-29T17:42:52.881Z,7.90
2019-04-29T17:45:30.712Z,9.08
2019-04-29T17:48:05.478Z,8.78
2019-04-29T17:50:39.073Z,9.10
2019-04-29T17:53:09.310Z,13.22
2019-04-29T17:55:42.956Z,13.78
2019-04-29T17:58:18.684Z,13.58
2019-04-29T18:00:55.521Z,9.78
2019-04-29T18:03:41.458Z,14.55
2019-04-29T18:06:10.865Z,11.12
2019-04-29T18:08:44.922Z,12.28
2019-04-29T18:11:15.024Z,11.68
2019-04-29T18:13:45.835Z,13.22
2019-04-29T18:16:22.169Z,12.53
2019-04-29T18:21:57.886Z,11.55
2019-04-29T18:24:29.419Z,12.30
2019-04-29T18:27:19.841Z,15.30
2019-04-29T18:29:49.243Z,15.70
2019-04-29T18:32:18.676Z,14.43
2019-04-29T18:34:48.008Z,16.15
2019-04-29T18:37:17.371Z,18.05
2019-04-29T18:39:46.707Z,14.23
2019-04-29T18:42:16.139Z,15.58
2019-04-29T18:44:56.524Z,13.35
2019-04-29T18:47:22.701Z,14.53
2019-04-29T18:49:47.767Z,14.85
2019-04-29T18:52:25.351Z,15.98
2019-04-29T18:54:48.175Z,17.73
2019-04-29T18:57:27.703Z,13.95
2019-04-29T18:59:48.732Z,14.33
2019-04-29T19:02:18.164Z,13.48
2019-04-29T19:04:53.336Z,13.93
2019-04-29T19:07:20.463Z,13.78
2019-04-29T19:09:49.962Z,11.00
2019-04-29T19:12:19.395Z,12.00
2019-04-29T19:14:48.789Z,13.53
2019-04-29T19:17:18.142Z,15.00
2019-04-29T19:19:47.768Z,15.23
2019-04-29T19:22:17.203Z,15.63
2019-04-29T19:24:48.151Z,14.85
2019-04-29T19:27:17.686Z,16.75
2019-04-29T19:29:47.139Z,13.88
2019-04-29T19:32:18.942Z,15.13
2019-04-29T19:34:50.155Z,15.00
2019-04-29T19:37:18.866Z,13.85
2019-04-29T19:39:48.229Z,18.98
2019-04-29T19:42:28.638Z,25.97
2019-04-29T19:44:48.798Z,19.20
2019-04-29T19:47:18.204Z,38.00
2019-04-29T19:49:47.564Z,16.67
2019-04-29T19:52:28.023Z,17.48
2019-04-29T19:54:47.996Z,20.45
2019-04-29T19:57:17.343Z,23.75
2019-04-29T19:59:51.187Z,17.02
2019-04-29T20:02:18.402Z,19.62
2019-04-29T20:04:54.113Z,22.65
2019-04-29T20:07:24.626Z,21.23
2019-04-29T20:10:03.242Z,23.95
2019-04-29T20:12:26.316Z,22.65
2019-04-29T20:14:59.623Z,25.40
2019-04-29T20:17:32.158Z,25.37
2019-04-29T20:20:06.806Z,26.37
2019-04-29T20:22:37.417Z,25.77
2019-04-29T20:25:08.577Z,27.40
2019-04-29T20:27:38.294Z,27.48
2019-04-29T20:30:16.565Z,28.27
2019-04-29T20:32:40.489Z,26.30
2019-04-29T20:35:10.507Z,27.60
2019-04-29T20:37:43.080Z,28.20
2019-04-29T20:40:11.803Z,26.48
2019-04-29T20:42:45.446Z,26.20
2019-04-29T20:45:12.787Z,31.25
2019-04-29T20:47:42.416Z,30.35
2019-04-29T20:50:13.983Z,27.73
2019-04-29T20:52:52.119Z,29.80
2019-04-29T20:55:19.276Z,29.02
2019-04-29T20:57:52.521Z,29.32
2019-04-29T21:00:24.829Z,27.80
2019-04-29T21:02:51.684Z,24.55
2019-04-29T21:05:24.502Z,24.60
2019-04-29T21:08:02.535Z,26.37
2019-04-29T21:10:25.106Z,25.52
2019-04-29T21:13:16.195Z,26.57
2019-04-29T21:16:01.850Z,22.87
2019-04-29T21:18:31.148Z,24.98
2019-04-29T21:21:04.523Z,29.48
2019-04-29T21:23:35.461Z,26.42
2019-04-29T21:26:05.395Z,27.05
2019-04-29T21:28:38.251Z,27.13
2019-04-29T21:31:05.300Z,26.50
2019-04-29T21:33:35.512Z,28.27
2019-04-29T21:36:15.821Z,29.52
2019-04-29T21:38:55.785Z,27.67
2019-04-29T21:41:31.050Z,29.57
2019-04-29T21:44:01.769Z,28.38
2019-04-29T21:46:31.127Z,25.62
2019-04-29T21:49:04.484Z,25.37
2019-04-29T21:51:31.692Z,24.00
2019-04-29T21:54:01.043Z,23.32
2019-04-29T21:56:30.453Z,24.87
2019-04-29T21:59:02.617Z,22.37
2019-04-29T22:01:34.268Z,23.87
2019-04-29T22:04:03.312Z,23.18
2019-04-29T22:06:32.810Z,21.55
2019-04-29T22:09:02.643Z,23.00
2019-04-29T22:11:36.136Z,23.67
2019-04-29T22:14:05.442Z,24.10
2019-04-29T22:16:35.668Z,22.42
2019-04-29T22:19:05.203Z,25.12
2019-04-29T22:21:36.070Z,28.25
2019-04-29T22:24:06.336Z,28.02
2019-04-29T22:26:35.876Z,25.60
2019-04-29T22:29:05.287Z,22.73
2019-04-29T22:31:38.248Z,20.08
2019-04-29T22:34:10.085Z,24.47
2019-04-29T22:36:37.305Z,20.90
2019-04-29T22:39:06.853Z,23.10
2019-04-29T22:41:55.973Z,25.10
2019-04-29T22:44:26.578Z,23.38
2019-04-29T22:46:56.011Z,22.85
2019-04-29T22:49:29.222Z,23.57
2019-04-29T22:51:57.249Z,22.60
2019-04-29T22:54:26.654Z,21.07
2019-04-29T22:56:56.746Z,22.42
2019-04-29T22:59:27.442Z,21.15
2019-04-29T23:01:56.883Z,22.82
2019-04-29T23:04:26.223Z,24.27
2019-04-29T23:06:55.593Z,21.97
2019-04-29T23:09:25.036Z,22.42
2019-04-29T23:11:55.720Z,23.77
2019-04-29T23:14:25.310Z,23.70
2019-04-29T23:16:55.560Z,21.57
2019-04-29T23:19:25.936Z,21.60
2019-04-29T23:22:16.996Z,22.55
2019-04-29T23:25:01.526Z,23.27
2019-04-29T23:27:31.049Z,21.40
2019-04-29T23:30:00.443Z,24.98
2019-04-29T23:32:29.882Z,25.00
2019-04-29T23:35:01.683Z,29.52
2019-04-29T23:37:30.371Z,25.80
2019-04-29T23:39:59.712Z,28.05
2019-04-29T23:42:29.081Z,26.52
2019-04-29T23:44:58.438Z,23.25
2019-04-29T23:47:27.872Z,25.32
2019-04-29T23:49:57.204Z,27.37
2019-04-29T23:52:26.998Z,28.90
2019-04-29T23:54:56.532Z,31.93
2019-04-29T23:57:27.603Z,28.80
